sensor_id;sensor_type;location;lat;lon;timestamp;temperature;humidity
19206;DHT22;59358;52.134;5.596;2022-10-16T00:02:25;12.80;99.90
19206;DHT22;59358;52.134;5.596;2022-10-16T00:04:51;12.90;99.90
19206;DHT22;59358;52.134;5.596;2022-10-16T00:07:20;12.90;99.90
19206;DHT22;59358;52.134;5.596;2022-10-16T00:09:47;12.90;99.90
19206;DHT22;59358;52.134;5.596;2022-10-16T00:12:15;12.90;99.90
19206;DHT22;59358;52.134;5.596;2022-10-16T00:14:42;12.90;99.90
19206;DHT22;59358;52.134;5.596;2022-10-16T00:17:09;12.90;99.90
19206;DHT22;59358;52.134;5.596;2022-10-16T00:19:36;12.90;99.90
19206;DHT22;59358;52.134;5.596;2022-10-16T00:22:03;12.90;99.90
19206;DHT22;59358;52.134;5.596;2022-10-16T00:24:29;12.90;99.90
19206;DHT22;59358;52.134;5.596;2022-10-16T00:26:56;12.90;99.90
19206;DHT22;59358;52.134;5.596;2022-10-16T00:29:24;12.90;99.90
19206;DHT22;59358;52.134;5.596;2022-10-16T00:31:51;12.90;99.90
19206;DHT22;59358;52.134;5.596;2022-10-16T00:34:18;12.90;99.90
19206;DHT22;59358;52.134;5.596;2022-10-16T00:36:45;12.90;99.90
19206;DHT22;59358;52.134;5.596;2022-10-16T00:39:12;12.90;99.90
19206;DHT22;59358;52.134;5.596;2022-10-16T00:41:38;12.90;99.90
19206;DHT22;59358;52.134;5.596;2022-10-16T00:47:09;13.00;99.90
19206;DHT22;59358;52.134;5.596;2022-10-16T00:49:36;13.00;99.90
19206;DHT22;59358;52.134;5.596;2022-10-16T00:52:03;13.10;99.90
19206;DHT22;59358;52.134;5.596;2022-10-16T00:54:31;13.10;99.90
19206;DHT22;59358;52.134;5.596;2022-10-16T00:57:01;13.10;99.90
19206;DHT22;59358;52.134;5.596;2022-10-16T00:59:30;13.20;99.90
19206;DHT22;59358;52.134;5.596;2022-10-16T01:01:58;13.20;99.90
19206;DHT22;59358;52.134;5.596;2022-10-16T01:04:29;13.20;99.90
19206;DHT22;59358;52.134;5.596;2022-10-16T01:07:05;13.20;99.90
19206;DHT22;59358;52.134;5.596;2022-10-16T01:09:39;13.30;99.90
19206;DHT22;59358;52.134;5.596;2022-10-16T01:12:14;13.30;99.90
19206;DHT22;59358;52.134;5.596;2022-10-16T01:14:47;13.30;99.90
19206;DHT22;59358;52.134;5.596;2022-10-16T01:17:17;13.30;99.90
19206;DHT22;59358;52.134;5.596;2022-10-16T01:20:02;13.30;99.90
19206;DHT22;59358;52.134;5.596;2022-10-16T01:22:37;13.40;99.90
19206;DHT22;59358;52.134;5.596;2022-10-16T01:25:09;13.40;99.90
19206;DHT22;59358;52.134;5.596;2022-10-16T01:27:40;13.40;99.90
19206;DHT22;59358;52.134;5.596;2022-10-16T01:30:12;13.40;99.90
19206;DHT22;59358;52.134;5.596;2022-10-16T01:32:42;13.40;99.90
19206;DHT22;59358;52.134;5.596;2022-10-16T01:35:15;13.40;99.90
19206;DHT22;59358;52.134;5.596;2022-10-16T01:37:48;13.40;99.90
19206;DHT22;59358;52.134;5.596;2022-10-16T01:40:17;13.40;99.90
19206;DHT22;59358;52.134;5.596;2022-10-16T01:42:51;13.50;99.90
19206;DHT22;59358;52.134;5.596;2022-10-16T01:45:20;13.50;99.90
19206;DHT22;59358;52.134;5.596;2022-10-16T01:47:49;13.50;99.90
19206;DHT22;59358;52.134;5.596;2022-10-16T01:50:19;13.50;99.90
19206;DHT22;59358;52.134;5.596;2022-10-16T01:52:49;13.50;99.90
19206;DHT22;59358;52.134;5.596;2022-10-16T01:55:21;13.50;99.90
19206;DHT22;59358;52.134;5.596;2022-10-16T01:57:51;13.50;99.90
19206;DHT22;59358;52.134;5.596;2022-10-16T02:00:21;13.40;99.90
19206;DHT22;59358;52.134;5.596;2022-10-16T02:02:49;13.40;99.90
19206;DHT22;59358;52.134;5.596;2022-10-16T02:05:21;13.40;99.90
19206;DHT22;59358;52.134;5.596;2022-10-16T02:07:50;13.40;99.90
19206;DHT22;59358;52.134;5.596;2022-10-16T02:10:17;13.40;99.90
19206;DHT22;59358;52.134;5.596;2022-10-16T02:12:48;13.50;99.90
19206;DHT22;59358;52.134;5.596;2022-10-16T02:15:18;13.50;99.90
19206;DHT22;59358;52.134;5.596;2022-10-16T02:17:45;13.50;99.90
19206;DHT22;59358;52.134;5.596;2022-10-16T02:20:12;13.50;99.90
19206;DHT22;59358;52.134;5.596;2022-10-16T02:22:42;13.50;99.90
19206;DHT22;59358;52.134;5.596;2022-10-16T02:25:12;13.50;99.90
19206;DHT22;59358;52.134;5.596;2022-10-16T02:27:45;13.50;99.90
19206;DHT22;59358;52.134;5.596;2022-10-16T02:30:21;13.50;99.90
19206;DHT22;59358;52.134;5.596;2022-10-16T02:32:49;13.50;99.90
19206;DHT22;59358;52.134;5.596;2022-10-16T02:35:19;13.50;99.90
19206;DHT22;59358;52.134;5.596;2022-10-16T02:37:46;13.50;99.90
19206;DHT22;59358;52.134;5.596;2022-10-16T02:40:14;13.50;99.90
19206;DHT22;59358;52.134;5.596;2022-10-16T02:42:42;13.50;99.90
19206;DHT22;59358;52.134;5.596;2022-10-16T02:45:10;13.50;99.90
19206;DHT22;59358;52.134;5.596;2022-10-16T02:47:39;13.50;99.90
19206;DHT22;59358;52.134;5.596;2022-10-16T02:50:07;13.50;99.90
19206;DHT22;59358;52.134;5.596;2022-10-16T02:52:33;13.50;99.90
19206;DHT22;59358;52.134;5.596;2022-10-16T02:55:01;13.50;99.90
19206;DHT22;59358;52.134;5.596;2022-10-16T02:57:27;13.40;99.90
19206;DHT22;59358;52.134;5.596;2022-10-16T02:59:54;13.40;99.90
19206;DHT22;59358;52.134;5.596;2022-10-16T03:02:21;13.40;99.90
19206;DHT22;59358;52.134;5.596;2022-10-16T03:04:49;13.40;99.90
19206;DHT22;59358;52.134;5.596;2022-10-16T03:07:16;13.40;99.90
19206;DHT22;59358;52.134;5.596;2022-10-16T03:09:43;13.40;99.90
19206;DHT22;59358;52.134;5.596;2022-10-16T03:12:10;13.30;99.90
19206;DHT22;59358;52.134;5.596;2022-10-16T03:14:37;13.30;99.90
19206;DHT22;59358;52.134;5.596;2022-10-16T03:17:05;13.30;99.90
19206;DHT22;59358;52.134;5.596;2022-10-16T03:19:32;13.30;99.90
19206;DHT22;59358;52.134;5.596;2022-10-16T03:22:00;13.30;99.90
19206;DHT22;59358;52.134;5.596;2022-10-16T03:24:27;13.30;99.90
19206;DHT22;59358;52.134;5.596;2022-10-16T03:26:54;13.30;99.90
19206;DHT22;59358;52.134;5.596;2022-10-16T03:29:21;13.30;99.90
19206;DHT22;59358;52.134;5.596;2022-10-16T03:31:48;13.20;99.90
19206;DHT22;59358;52.134;5.596;2022-10-16T03:34:15;13.20;99.90
19206;DHT22;59358;52.134;5.596;2022-10-16T03:36:42;13.10;99.90
19206;DHT22;59358;52.134;5.596;2022-10-16T03:39:10;13.10;99.90
19206;DHT22;59358;52.134;5.596;2022-10-16T03:41:37;13.10;99.90
19206;DHT22;59358;52.134;5.596;2022-10-16T03:44:03;13.10;99.90
19206;DHT22;59358;52.134;5.596;2022-10-16T03:46:30;13.10;99.90
19206;DHT22;59358;52.134;5.596;2022-10-16T03:48:57;13.10;99.90
19206;DHT22;59358;52.134;5.596;2022-10-16T03:51:24;13.10;99.90
19206;DHT22;59358;52.134;5.596;2022-10-16T03:53:50;13.10;99.90
19206;DHT22;59358;52.134;5.596;2022-10-16T03:56:19;13.10;99.90
19206;DHT22;59358;52.134;5.596;2022-10-16T03:58:46;13.00;99.90
19206;DHT22;59358;52.134;5.596;2022-10-16T04:01:14;13.10;99.90
19206;DHT22;59358;52.134;5.596;2022-10-16T04:03:41;13.00;99.90
19206;DHT22;59358;52.134;5.596;2022-10-16T04:06:08;13.00;99.90
19206;DHT22;59358;52.134;5.596;2022-10-16T04:08:35;12.90;99.90
19206;DHT22;59358;52.134;5.596;2022-10-16T04:11:02;12.90;99.90
19206;DHT22;59358;52.134;5.596;2022-10-16T04:13:30;12.90;99.90
19206;DHT22;59358;52.134;5.596;2022-10-16T04:15:57;12.90;99.90
19206;DHT22;59358;52.134;5.596;2022-10-16T04:18:23;12.90;99.90
19206;DHT22;59358;52.134;5.596;2022-10-16T04:20:52;12.90;99.90
19206;DHT22;59358;52.134;5.596;2022-10-16T04:23:19;12.90;99.90
19206;DHT22;59358;52.134;5.596;2022-10-16T04:25:48;12.90;99.90
19206;DHT22;59358;52.134;5.596;2022-10-16T04:28:15;12.90;99.90
19206;DHT22;59358;52.134;5.596;2022-10-16T04:30:43;12.80;99.90
19206;DHT22;59358;52.134;5.596;2022-10-16T04:33:10;12.80;99.90
19206;DHT22;59358;52.134;5.596;2022-10-16T04:35:38;12.80;99.90
19206;DHT22;59358;52.134;5.596;2022-10-16T04:38:05;12.80;99.90
19206;DHT22;59358;52.134;5.596;2022-10-16T04:40:32;12.70;99.90
19206;DHT22;59358;52.134;5.596;2022-10-16T04:43:01;12.70;99.90
19206;DHT22;59358;52.134;5.596;2022-10-16T04:45:28;12.60;99.90
19206;DHT22;59358;52.134;5.596;2022-10-16T04:47:58;12.70;99.90
19206;DHT22;59358;52.134;5.596;2022-10-16T04:50:26;12.60;99.90
19206;DHT22;59358;52.134;5.596;2022-10-16T04:52:52;12.60;99.90
19206;DHT22;59358;52.134;5.596;2022-10-16T04:55:20;12.70;99.90
19206;DHT22;59358;52.134;5.596;2022-10-16T04:57:46;12.70;99.90
19206;DHT22;59358;52.134;5.596;2022-10-16T05:00:13;12.70;99.90
19206;DHT22;59358;52.134;5.596;2022-10-16T05:02:40;12.70;99.90
19206;DHT22;59358;52.134;5.596;2022-10-16T05:05:08;12.70;99.90
19206;DHT22;59358;52.134;5.596;2022-10-16T05:07:35;12.70;99.90
19206;DHT22;59358;52.134;5.596;2022-10-16T05:10:02;12.70;99.90
19206;DHT22;59358;52.134;5.596;2022-10-16T05:12:29;12.70;99.90
19206;DHT22;59358;52.134;5.596;2022-10-16T05:14:56;12.70;99.90
19206;DHT22;59358;52.134;5.596;2022-10-16T05:17:24;12.60;99.90
19206;DHT22;59358;52.134;5.596;2022-10-16T05:19:51;12.60;99.90
19206;DHT22;59358;52.134;5.596;2022-10-16T05:22:19;12.60;99.90
19206;DHT22;59358;52.134;5.596;2022-10-16T05:24:46;12.50;99.90
19206;DHT22;59358;52.134;5.596;2022-10-16T05:27:13;12.50;99.90
19206;DHT22;59358;52.134;5.596;2022-10-16T05:29:44;12.50;99.90
19206;DHT22;59358;52.134;5.596;2022-10-16T05:32:12;12.50;99.90
19206;DHT22;59358;52.134;5.596;2022-10-16T05:34:39;12.40;99.90
19206;DHT22;59358;52.134;5.596;2022-10-16T05:37:06;12.40;99.90
19206;DHT22;59358;52.134;5.596;2022-10-16T05:39:34;12.30;99.90
19206;DHT22;59358;52.134;5.596;2022-10-16T05:42:02;12.20;99.90
19206;DHT22;59358;52.134;5.596;2022-10-16T05:44:29;12.20;99.90
19206;DHT22;59358;52.134;5.596;2022-10-16T05:46:55;12.30;99.90
19206;DHT22;59358;52.134;5.596;2022-10-16T05:49:22;12.20;99.90
19206;DHT22;59358;52.134;5.596;2022-10-16T05:51:49;12.20;99.90
19206;DHT22;59358;52.134;5.596;2022-10-16T05:54:16;12.30;99.90
19206;DHT22;59358;52.134;5.596;2022-10-16T05:56:44;12.30;99.90
19206;DHT22;59358;52.134;5.596;2022-10-16T05:59:11;12.40;99.90
19206;DHT22;59358;52.134;5.596;2022-10-16T06:01:38;12.40;99.90
19206;DHT22;59358;52.134;5.596;2022-10-16T06:04:05;12.50;99.90
19206;DHT22;59358;52.134;5.596;2022-10-16T06:06:32;12.50;99.90
19206;DHT22;59358;52.134;5.596;2022-10-16T06:08:59;12.50;99.90
19206;DHT22;59358;52.134;5.596;2022-10-16T06:11:27;12.60;99.90
19206;DHT22;59358;52.134;5.596;2022-10-16T06:13:57;12.60;99.90
19206;DHT22;59358;52.134;5.596;2022-10-16T06:16:25;12.70;99.90
19206;DHT22;59358;52.134;5.596;2022-10-16T06:18:54;12.70;99.90
19206;DHT22;59358;52.134;5.596;2022-10-16T06:21:22;12.70;99.90
19206;DHT22;59358;52.134;5.596;2022-10-16T06:23:50;12.80;99.90
19206;DHT22;59358;52.134;5.596;2022-10-16T06:26:18;12.80;99.90
19206;DHT22;59358;52.134;5.596;2022-10-16T06:28:45;12.80;99.90
19206;DHT22;59358;52.134;5.596;2022-10-16T06:31:14;12.90;99.90
19206;DHT22;59358;52.134;5.596;2022-10-16T06:33:41;13.00;99.90
19206;DHT22;59358;52.134;5.596;2022-10-16T06:36:09;13.00;99.90
19206;DHT22;59358;52.134;5.596;2022-10-16T06:38:37;13.10;99.90
19206;DHT22;59358;52.134;5.596;2022-10-16T06:41:06;13.10;99.90
19206;DHT22;59358;52.134;5.596;2022-10-16T06:43:33;13.20;99.90
19206;DHT22;59358;52.134;5.596;2022-10-16T06:46:01;13.20;99.90
19206;DHT22;59358;52.134;5.596;2022-10-16T06:48:30;13.20;99.90
19206;DHT22;59358;52.134;5.596;2022-10-16T06:50:58;13.30;99.90
19206;DHT22;59358;52.134;5.596;2022-10-16T06:53:27;13.30;99.90
19206;DHT22;59358;52.134;5.596;2022-10-16T06:55:54;13.30;99.90
19206;DHT22;59358;52.134;5.596;2022-10-16T06:58:22;13.40;99.90
19206;DHT22;59358;52.134;5.596;2022-10-16T07:00:53;13.30;99.90
19206;DHT22;59358;52.134;5.596;2022-10-16T07:03:21;13.40;99.90
19206;DHT22;59358;52.134;5.596;2022-10-16T07:05:49;13.40;99.90
19206;DHT22;59358;52.134;5.596;2022-10-16T07:08:16;13.40;99.90
19206;DHT22;59358;52.134;5.596;2022-10-16T07:10:43;13.40;99.90
19206;DHT22;59358;52.134;5.596;2022-10-16T07:13:10;13.50;99.90
19206;DHT22;59358;52.134;5.596;2022-10-16T07:15:39;13.50;99.90
19206;DHT22;59358;52.134;5.596;2022-10-16T07:18:06;13.50;99.90
19206;DHT22;59358;52.134;5.596;2022-10-16T07:20:33;13.50;99.90
19206;DHT22;59358;52.134;5.596;2022-10-16T07:23:01;13.60;99.90
19206;DHT22;59358;52.134;5.596;2022-10-16T07:25:28;13.60;99.90
19206;DHT22;59358;52.134;5.596;2022-10-16T07:27:55;13.60;99.90
19206;DHT22;59358;52.134;5.596;2022-10-16T07:30:22;13.60;99.90
19206;DHT22;59358;52.134;5.596;2022-10-16T07:32:49;13.60;99.90
19206;DHT22;59358;52.134;5.596;2022-10-16T07:35:16;13.60;99.90
19206;DHT22;59358;52.134;5.596;2022-10-16T07:37:44;13.70;99.90
19206;DHT22;59358;52.134;5.596;2022-10-16T07:40:15;13.70;99.90
19206;DHT22;59358;52.134;5.596;2022-10-16T07:42:42;13.80;99.90
19206;DHT22;59358;52.134;5.596;2022-10-16T07:45:09;13.80;99.90
19206;DHT22;59358;52.134;5.596;2022-10-16T07:47:36;13.90;99.90
19206;DHT22;59358;52.134;5.596;2022-10-16T07:50:03;13.90;99.90
19206;DHT22;59358;52.134;5.596;2022-10-16T07:52:30;14.00;99.90
19206;DHT22;59358;52.134;5.596;2022-10-16T07:54:58;14.00;99.90
19206;DHT22;59358;52.134;5.596;2022-10-16T07:57:26;14.00;99.90
19206;DHT22;59358;52.134;5.596;2022-10-16T07:59:53;14.10;99.90
19206;DHT22;59358;52.134;5.596;2022-10-16T08:02:20;14.10;99.90
19206;DHT22;59358;52.134;5.596;2022-10-16T08:04:46;14.10;99.90
19206;DHT22;59358;52.134;5.596;2022-10-16T08:07:13;14.00;99.90
19206;DHT22;59358;52.134;5.596;2022-10-16T08:09:40;14.00;99.90
19206;DHT22;59358;52.134;5.596;2022-10-16T08:12:07;14.10;99.90
19206;DHT22;59358;52.134;5.596;2022-10-16T08:14:37;14.10;99.90
19206;DHT22;59358;52.134;5.596;2022-10-16T08:17:04;14.20;99.90
19206;DHT22;59358;52.134;5.596;2022-10-16T08:19:31;14.40;99.90
19206;DHT22;59358;52.134;5.596;2022-10-16T08:22:00;14.40;99.90
19206;DHT22;59358;52.134;5.596;2022-10-16T08:24:27;14.50;99.90
19206;DHT22;59358;52.134;5.596;2022-10-16T08:26:56;14.60;99.90
19206;DHT22;59358;52.134;5.596;2022-10-16T08:29:22;14.70;99.90
19206;DHT22;59358;52.134;5.596;2022-10-16T08:31:51;14.90;99.90
19206;DHT22;59358;52.134;5.596;2022-10-16T08:34:17;15.10;99.90
19206;DHT22;59358;52.134;5.596;2022-10-16T08:36:45;15.10;99.90
19206;DHT22;59358;52.134;5.596;2022-10-16T08:39:11;14.80;99.90
19206;DHT22;59358;52.134;5.596;2022-10-16T08:42:02;14.70;99.90
19206;DHT22;59358;52.134;5.596;2022-10-16T08:45:02;14.90;99.90
19206;DHT22;59358;52.134;5.596;2022-10-16T08:47:45;14.90;99.90
19206;DHT22;59358;52.134;5.596;2022-10-16T08:50:19;14.70;99.90
19206;DHT22;59358;52.134;5.596;2022-10-16T08:52:48;14.90;99.90
19206;DHT22;59358;52.134;5.596;2022-10-16T08:55:29;15.20;99.90
19206;DHT22;59358;52.134;5.596;2022-10-16T08:57:57;15.30;99.90
19206;DHT22;59358;52.134;5.596;2022-10-16T09:00:26;15.40;99.90
19206;DHT22;59358;52.134;5.596;2022-10-16T09:03:00;15.50;99.90
19206;DHT22;59358;52.134;5.596;2022-10-16T09:05:48;15.60;99.90
19206;DHT22;59358;52.134;5.596;2022-10-16T09:08:24;15.70;99.90
19206;DHT22;59358;52.134;5.596;2022-10-16T09:10:56;15.90;99.90
19206;DHT22;59358;52.134;5.596;2022-10-16T09:13:28;15.90;99.90
19206;DHT22;59358;52.134;5.596;2022-10-16T09:16:07;15.80;99.90
19206;DHT22;59358;52.134;5.596;2022-10-16T09:18:42;15.90;99.90
19206;DHT22;59358;52.134;5.596;2022-10-16T09:21:16;16.10;99.90
19206;DHT22;59358;52.134;5.596;2022-10-16T09:23:45;16.10;99.90
19206;DHT22;59358;52.134;5.596;2022-10-16T09:26:14;16.20;99.90
19206;DHT22;59358;52.134;5.596;2022-10-16T09:28:41;16.30;99.90
19206;DHT22;59358;52.134;5.596;2022-10-16T09:31:15;16.40;99.90
19206;DHT22;59358;52.134;5.596;2022-10-16T09:33:47;16.40;99.90
19206;DHT22;59358;52.134;5.596;2022-10-16T09:36:15;16.40;99.90
19206;DHT22;59358;52.134;5.596;2022-10-16T09:38:42;16.40;99.90
19206;DHT22;59358;52.134;5.596;2022-10-16T09:41:16;16.50;99.90
19206;DHT22;59358;52.134;5.596;2022-10-16T09:43:49;16.70;99.90
19206;DHT22;59358;52.134;5.596;2022-10-16T09:46:26;16.80;99.90
19206;DHT22;59358;52.134;5.596;2022-10-16T09:48:57;16.90;99.90
19206;DHT22;59358;52.134;5.596;2022-10-16T09:51:26;16.70;99.90
19206;DHT22;59358;52.134;5.596;2022-10-16T09:53:56;16.80;99.90
19206;DHT22;59358;52.134;5.596;2022-10-16T09:56:25;16.90;99.90
19206;DHT22;59358;52.134;5.596;2022-10-16T09:58:53;17.00;99.90
19206;DHT22;59358;52.134;5.596;2022-10-16T10:01:24;17.10;99.90
19206;DHT22;59358;52.134;5.596;2022-10-16T10:03:57;17.30;99.90
19206;DHT22;59358;52.134;5.596;2022-10-16T10:06:28;17.30;99.90
19206;DHT22;59358;52.134;5.596;2022-10-16T10:09:02;17.30;99.90
19206;DHT22;59358;52.134;5.596;2022-10-16T10:11:44;17.50;99.90
19206;DHT22;59358;52.134;5.596;2022-10-16T10:14:24;17.70;99.90
19206;DHT22;59358;52.134;5.596;2022-10-16T10:17:01;17.60;99.90
19206;DHT22;59358;52.134;5.596;2022-10-16T10:19:29;17.40;99.90
19206;DHT22;59358;52.134;5.596;2022-10-16T10:21:56;17.50;99.90
19206;DHT22;59358;52.134;5.596;2022-10-16T10:24:23;17.70;99.90
19206;DHT22;59358;52.134;5.596;2022-10-16T10:26:54;17.80;99.90
19206;DHT22;59358;52.134;5.596;2022-10-16T10:29:31;17.80;99.90
19206;DHT22;59358;52.134;5.596;2022-10-16T10:32:12;17.80;99.90
19206;DHT22;59358;52.134;5.596;2022-10-16T10:34:52;18.00;99.90
19206;DHT22;59358;52.134;5.596;2022-10-16T10:37:33;18.10;99.90
19206;DHT22;59358;52.134;5.596;2022-10-16T10:40:08;18.30;99.90
19206;DHT22;59358;52.134;5.596;2022-10-16T10:42:46;18.30;99.90
19206;DHT22;59358;52.134;5.596;2022-10-16T10:45:18;18.00;99.90
19206;DHT22;59358;52.134;5.596;2022-10-16T10:47:59;18.10;99.90
19206;DHT22;59358;52.134;5.596;2022-10-16T10:50:36;18.20;99.90
19206;DHT22;59358;52.134;5.596;2022-10-16T10:53:11;18.10;99.90
19206;DHT22;59358;52.134;5.596;2022-10-16T10:55:44;18.20;99.90
19206;DHT22;59358;52.134;5.596;2022-10-16T11:01:33;18.70;99.90
19206;DHT22;59358;52.134;5.596;2022-10-16T11:04:24;18.30;99.90
19206;DHT22;59358;52.134;5.596;2022-10-16T11:06:57;18.30;99.90
19206;DHT22;59358;52.134;5.596;2022-10-16T11:09:28;18.30;99.90
19206;DHT22;59358;52.134;5.596;2022-10-16T11:12:00;18.10;99.90
19206;DHT22;59358;52.134;5.596;2022-10-16T11:14:31;18.40;99.90
19206;DHT22;59358;52.134;5.596;2022-10-16T11:17:04;18.50;99.90
19206;DHT22;59358;52.134;5.596;2022-10-16T11:19:39;18.60;99.90
19206;DHT22;59358;52.134;5.596;2022-10-16T11:22:12;18.90;99.90
19206;DHT22;59358;52.134;5.596;2022-10-16T11:24:45;19.10;99.90
19206;DHT22;59358;52.134;5.596;2022-10-16T11:27:17;18.90;99.90
19206;DHT22;59358;52.134;5.596;2022-10-16T11:29:49;18.60;99.90
19206;DHT22;59358;52.134;5.596;2022-10-16T11:32:22;18.60;99.90
19206;DHT22;59358;52.134;5.596;2022-10-16T11:34:53;18.80;99.90
19206;DHT22;59358;52.134;5.596;2022-10-16T11:37:27;19.00;99.90
19206;DHT22;59358;52.134;5.596;2022-10-16T11:40:00;18.90;99.90
19206;DHT22;59358;52.134;5.596;2022-10-16T11:42:33;18.90;99.90
19206;DHT22;59358;52.134;5.596;2022-10-16T11:45:12;19.10;99.90
19206;DHT22;59358;52.134;5.596;2022-10-16T11:47:44;19.30;99.90
19206;DHT22;59358;52.134;5.596;2022-10-16T11:50:19;19.50;99.90
19206;DHT22;59358;52.134;5.596;2022-10-16T11:52:55;19.80;99.90
19206;DHT22;59358;52.134;5.596;2022-10-16T11:55:28;19.80;99.90
19206;DHT22;59358;52.134;5.596;2022-10-16T11:58:00;19.50;99.90
19206;DHT22;59358;52.134;5.596;2022-10-16T12:00:34;19.50;99.90
19206;DHT22;59358;52.134;5.596;2022-10-16T12:03:11;19.30;99.90
19206;DHT22;59358;52.134;5.596;2022-10-16T12:06:00;19.30;99.90
19206;DHT22;59358;52.134;5.596;2022-10-16T12:08:30;19.20;99.90
19206;DHT22;59358;52.134;5.596;2022-10-16T12:11:07;19.10;99.90
19206;DHT22;59358;52.134;5.596;2022-10-16T12:13:37;18.80;99.90
19206;DHT22;59358;52.134;5.596;2022-10-16T12:16:20;18.40;99.90
19206;DHT22;59358;52.134;5.596;2022-10-16T12:18:48;18.20;99.90
19206;DHT22;59358;52.134;5.596;2022-10-16T12:21:16;18.40;99.90
19206;DHT22;59358;52.134;5.596;2022-10-16T12:23:50;18.80;99.90
19206;DHT22;59358;52.134;5.596;2022-10-16T12:26:25;19.00;99.90
19206;DHT22;59358;52.134;5.596;2022-10-16T12:28:53;19.30;99.90
19206;DHT22;59358;52.134;5.596;2022-10-16T12:31:21;19.80;99.90
19206;DHT22;59358;52.134;5.596;2022-10-16T12:33:59;19.80;99.90
19206;DHT22;59358;52.134;5.596;2022-10-16T12:36:29;19.50;99.90
19206;DHT22;59358;52.134;5.596;2022-10-16T12:38:58;19.50;99.90
19206;DHT22;59358;52.134;5.596;2022-10-16T12:41:27;19.30;99.90
19206;DHT22;59358;52.134;5.596;2022-10-16T12:43:55;19.40;99.90
19206;DHT22;59358;52.134;5.596;2022-10-16T12:46:37;19.30;99.90
19206;DHT22;59358;52.134;5.596;2022-10-16T12:49:20;19.30;99.90
19206;DHT22;59358;52.134;5.596;2022-10-16T12:51:47;19.50;99.90
19206;DHT22;59358;52.134;5.596;2022-10-16T12:54:17;19.50;99.90
19206;DHT22;59358;52.134;5.596;2022-10-16T12:56:51;19.50;99.90
19206;DHT22;59358;52.134;5.596;2022-10-16T12:59:29;19.20;99.90
19206;DHT22;59358;52.134;5.596;2022-10-16T13:02:18;19.20;99.90
19206;DHT22;59358;52.134;5.596;2022-10-16T13:05:02;19.30;99.90
19206;DHT22;59358;52.134;5.596;2022-10-16T13:07:43;19.40;99.90
19206;DHT22;59358;52.134;5.596;2022-10-16T13:10:23;19.60;99.90
19206;DHT22;59358;52.134;5.596;2022-10-16T13:13:17;19.70;99.90
19206;DHT22;59358;52.134;5.596;2022-10-16T13:15:58;19.90;99.90
19206;DHT22;59358;52.134;5.596;2022-10-16T13:18:34;19.90;99.90
19206;DHT22;59358;52.134;5.596;2022-10-16T13:21:16;20.20;99.90
19206;DHT22;59358;52.134;5.596;2022-10-16T13:23:50;20.30;99.90
19206;DHT22;59358;52.134;5.596;2022-10-16T13:26:31;20.20;99.90
19206;DHT22;59358;52.134;5.596;2022-10-16T13:29:01;20.20;99.90
19206;DHT22;59358;52.134;5.596;2022-10-16T13:31:28;20.00;99.90
19206;DHT22;59358;52.134;5.596;2022-10-16T13:33:58;19.80;99.90
19206;DHT22;59358;52.134;5.596;2022-10-16T13:36:27;19.70;99.90
19206;DHT22;59358;52.134;5.596;2022-10-16T13:39:06;19.70;99.90
19206;DHT22;59358;52.134;5.596;2022-10-16T13:41:35;19.60;99.90
19206;DHT22;59358;52.134;5.596;2022-10-16T13:44:01;19.60;99.90
19206;DHT22;59358;52.134;5.596;2022-10-16T13:46:28;19.50;99.90
19206;DHT22;59358;52.134;5.596;2022-10-16T13:49:02;19.40;99.90
19206;DHT22;59358;52.134;5.596;2022-10-16T13:51:30;19.20;99.90
19206;DHT22;59358;52.134;5.596;2022-10-16T13:53:58;19.00;99.90
19206;DHT22;59358;52.134;5.596;2022-10-16T13:56:27;19.00;99.90
19206;DHT22;59358;52.134;5.596;2022-10-16T13:59:00;19.00;99.90
19206;DHT22;59358;52.134;5.596;2022-10-16T14:01:29;19.00;99.90
19206;DHT22;59358;52.134;5.596;2022-10-16T14:04:02;18.90;99.90
19206;DHT22;59358;52.134;5.596;2022-10-16T14:06:30;19.10;99.90
19206;DHT22;59358;52.134;5.596;2022-10-16T14:09:02;19.10;99.90
19206;DHT22;59358;52.134;5.596;2022-10-16T14:11:32;19.10;99.90
19206;DHT22;59358;52.134;5.596;2022-10-16T14:14:02;18.90;99.90
19206;DHT22;59358;52.134;5.596;2022-10-16T14:16:30;19.00;99.90
19206;DHT22;59358;52.134;5.596;2022-10-16T14:19:01;19.00;99.90
19206;DHT22;59358;52.134;5.596;2022-10-16T14:21:29;19.00;99.90
19206;DHT22;59358;52.134;5.596;2022-10-16T14:23:57;19.10;99.90
19206;DHT22;59358;52.134;5.596;2022-10-16T14:26:27;19.10;99.90
19206;DHT22;59358;52.134;5.596;2022-10-16T14:29:12;19.00;99.90
19206;DHT22;59358;52.134;5.596;2022-10-16T14:31:40;18.80;99.90
19206;DHT22;59358;52.134;5.596;2022-10-16T14:34:25;18.80;99.90
19206;DHT22;59358;52.134;5.596;2022-10-16T14:36:53;18.80;99.90
19206;DHT22;59358;52.134;5.596;2022-10-16T14:39:22;19.00;99.90
19206;DHT22;59358;52.134;5.596;2022-10-16T14:41:50;19.10;99.90
19206;DHT22;59358;52.134;5.596;2022-10-16T14:44:20;19.10;99.90
19206;DHT22;59358;52.134;5.596;2022-10-16T14:46:48;19.20;99.90
19206;DHT22;59358;52.134;5.596;2022-10-16T14:49:18;19.20;99.90
19206;DHT22;59358;52.134;5.596;2022-10-16T14:51:47;19.20;99.90
19206;DHT22;59358;52.134;5.596;2022-10-16T14:54:18;19.00;99.90
19206;DHT22;59358;52.134;5.596;2022-10-16T14:56:48;19.00;99.90
19206;DHT22;59358;52.134;5.596;2022-10-16T14:59:28;19.00;99.90
19206;DHT22;59358;52.134;5.596;2022-10-16T15:01:56;19.10;99.90
19206;DHT22;59358;52.134;5.596;2022-10-16T15:04:23;19.20;99.90
19206;DHT22;59358;52.134;5.596;2022-10-16T15:06:50;19.30;99.90
19206;DHT22;59358;52.134;5.596;2022-10-16T15:09:17;19.00;99.90
19206;DHT22;59358;52.134;5.596;2022-10-16T15:11:44;18.90;99.90
19206;DHT22;59358;52.134;5.596;2022-10-16T15:14:12;18.90;99.90
19206;DHT22;59358;52.134;5.596;2022-10-16T15:16:40;19.00;99.90
19206;DHT22;59358;52.134;5.596;2022-10-16T15:19:07;19.30;99.90
19206;DHT22;59358;52.134;5.596;2022-10-16T15:21:34;19.40;99.90
19206;DHT22;59358;52.134;5.596;2022-10-16T15:24:01;19.50;99.90
19206;DHT22;59358;52.134;5.596;2022-10-16T15:26:29;19.70;99.90
19206;DHT22;59358;52.134;5.596;2022-10-16T15:28:56;19.60;99.90
19206;DHT22;59358;52.134;5.596;2022-10-16T15:31:23;19.60;99.90
19206;DHT22;59358;52.134;5.596;2022-10-16T15:33:53;19.50;99.90
19206;DHT22;59358;52.134;5.596;2022-10-16T15:36:28;19.40;99.90
19206;DHT22;59358;52.134;5.596;2022-10-16T15:38:55;19.10;99.90
19206;DHT22;59358;52.134;5.596;2022-10-16T15:41:25;19.00;99.90
19206;DHT22;59358;52.134;5.596;2022-10-16T15:43:52;18.80;99.90
19206;DHT22;59358;52.134;5.596;2022-10-16T15:46:20;18.60;99.90
19206;DHT22;59358;52.134;5.596;2022-10-16T15:48:47;18.30;99.90
19206;DHT22;59358;52.134;5.596;2022-10-16T15:51:17;17.90;99.90
19206;DHT22;59358;52.134;5.596;2022-10-16T15:53:44;17.70;99.90
19206;DHT22;59358;52.134;5.596;2022-10-16T15:56:13;17.50;99.90